Time;durP1;ratioP1;P1;durP2;ratioP2;P2;SDS_P1;SDS_P2;PMS_P1;PMS_P2;Temp;Humidity;BMP_temperature;BMP_pressure;BME280_temperature;BME280_humidity;BME280_pressure;Samples;Min_cycle;Max_cycle;Signal;HPM_P1;HPM_P2
2023/03/21 00:01:52;;;;;;;2.47;2.27;;;11.60;99.90;;;11.67;nan;100902.81;4987739;28;20677;-63
2023/03/21 00:04:22;;;;;;;1.97;1.87;;;11.60;99.90;;;11.64;nan;100902.16;4988734;28;21038;-64
2023/03/21 00:06:49;;;;;;;1.77;1.67;;;11.50;99.90;;;11.63;nan;100901.31;4989883;28;20984;-61
2023/03/21 00:09:16;;;;;;;2.00;1.90;;;11.50;99.90;;;11.61;nan;100905.00;4987594;28;21057;-65
2023/03/21 00:11:44;;;;;;;1.83;1.73;;;11.50;99.90;;;11.57;nan;100901.78;4989499;28;20704;-64
2023/03/21 00:14:13;;;;;;;2.60;1.80;;;11.40;99.90;;;11.60;nan;100903.34;4988818;28;20633;-59
2023/03/21 00:16:40;;;;;;;1.93;1.83;;;11.40;99.90;;;11.56;nan;100888.81;4989953;28;21314;-62
2023/03/21 00:19:09;;;;;;;2.17;2.00;;;11.40;99.90;;;11.54;nan;100893.34;4981042;28;20630;-63
2023/03/21 00:21:37;;;;;;;5.33;1.80;;;11.40;99.90;;;11.51;nan;100883.94;4990687;28;20661;-62
2023/03/21 00:24:24;;;;;;;2.50;1.70;;;11.40;99.90;;;11.54;nan;100885.50;4972254;28;21256;-60
2023/03/21 00:26:51;;;;;;;2.90;1.87;;;11.40;99.90;;;11.51;nan;100883.94;4981262;28;20622;-63
2023/03/21 00:29:18;;;;;;;1.50;1.40;;;11.40;99.90;;;11.53;nan;100878.59;4991001;28;20684;-63
2023/03/21 00:31:45;;;;;;;1.47;1.23;;;11.40;99.90;;;11.52;nan;100884.78;4988326;28;20658;-64
2023/03/21 00:34:12;;;;;;;1.97;1.87;;;11.40;99.90;;;11.49;nan;100877.13;4990955;28;20611;-64
2023/03/21 00:36:44;;;;;;;1.60;1.53;;;11.30;99.90;;;11.47;nan;100874.63;4990581;28;20638;-64
2023/03/21 00:39:11;;;;;;;2.10;1.83;;;11.30;99.90;;;11.43;nan;100872.34;4990511;28;21046;-65
2023/03/21 00:41:38;;;;;;;1.83;1.73;;;11.30;99.90;;;11.41;nan;100874.25;4981360;28;20666;-64
2023/03/21 00:44:12;;;;;;;4.20;2.10;;;11.30;99.90;;;11.40;nan;100875.19;4986402;28;20667;-66
2023/03/21 00:46:39;;;;;;;1.77;1.53;;;11.30;99.90;;;11.40;nan;100868.19;4984584;28;20642;-66
2023/03/21 00:49:19;;;;;;;1.77;1.67;;;11.30;99.90;;;11.42;nan;100862.84;4990172;28;21059;-65
2023/03/21 00:51:50;;;;;;;2.10;1.80;;;11.30;99.90;;;11.39;nan;100855.22;4980538;28;20659;-65
2023/03/21 00:54:18;;;;;;;2.03;1.93;;;11.30;99.90;;;11.37;nan;100857.94;4970672;28;20641;-66
2023/03/21 00:56:45;;;;;;;2.07;1.87;;;11.20;99.90;;;11.38;nan;100859.63;4978598;28;21234;-64
2023/03/21 00:59:12;;;;;;;2.00;1.90;;;11.20;99.90;;;11.40;nan;100865.56;4990425;28;20660;-65
2023/03/21 01:01:39;;;;;;;1.90;1.80;;;11.30;99.90;;;11.38;nan;100858.78;4988328;28;21261;-63
2023/03/21 01:04:12;;;;;;;2.13;2.03;;;11.20;99.90;;;11.40;nan;100859.50;4990197;28;21243;-66
2023/03/21 01:06:41;;;;;;;1.97;1.67;;;11.30;99.90;;;11.38;nan;100857.00;4985337;28;20624;-65
2023/03/21 01:09:20;;;;;;;1.93;1.83;;;11.30;99.90;;;11.40;nan;100859.50;4971095;28;20607;-65
2023/03/21 01:11:49;;;;;;;3.47;1.80;;;11.30;99.90;;;11.43;nan;100852.28;5018116;23;20788;-70
2023/03/21 01:14:19;;;;;;;2.00;1.70;;;11.30;99.90;;;11.40;nan;100849.88;4993458;28;20678;-70
2023/03/21 01:16:53;;;;;;;5.70;1.80;;;11.30;99.90;;;11.34;nan;100844.25;5000067;28;21014;-68
2023/03/21 01:19:28;;;;;;;1.53;1.40;;;11.20;99.90;;;11.30;nan;100845.44;4998526;28;20630;-70
2023/03/21 01:22:14;;;;;;;1.80;1.23;;;11.20;99.90;;;11.34;nan;100841.66;4989719;28;21001;-70
2023/03/21 01:24:41;;;;;;;2.30;1.63;;;11.20;99.90;;;11.33;nan;100837.38;4991853;28;21041;-68
2023/03/21 01:27:19;;;;;;;1.53;1.53;;;11.20;99.90;;;11.29;nan;100841.97;4993587;28;20640;-69
2023/03/21 01:29:46;;;;;;;1.60;1.50;;;11.10;99.90;;;11.28;nan;100839.47;4992334;28;21070;-69
2023/03/21 01:32:13;;;;;;;1.87;1.77;;;11.10;99.90;;;11.28;nan;100839.47;4991601;28;20707;-68
2023/03/21 01:34:40;;;;;;;1.53;1.43;;;11.20;99.90;;;11.27;nan;100832.56;4992426;28;20638;-70
2023/03/21 01:37:07;;;;;;;1.63;1.53;;;11.10;99.90;;;11.22;nan;100837.31;4987427;28;21247;-70
2023/03/21 01:39:34;;;;;;;1.50;1.40;;;11.10;99.90;;;11.20;nan;100823.53;4990461;28;21446;-70
2023/03/21 01:42:01;;;;;;;1.53;1.43;;;11.10;99.90;;;11.21;nan;100830.41;4991605;28;21251;-70
2023/03/21 01:44:28;;;;;;;1.73;1.60;;;11.10;99.90;;;11.22;nan;100832.91;4985538;28;21231;-71
2023/03/21 01:46:55;;;;;;;2.23;1.37;;;11.10;99.90;;;11.25;nan;100832.69;4982166;28;20673;-70
2023/03/21 01:49:44;;;;;;;4.20;1.50;;;11.10;99.90;;;11.24;nan;100833.66;4984294;28;20640;-70
2023/03/21 01:52:19;;;;;;;1.57;1.50;;;11.10;99.90;;;11.22;nan;100826.88;4972942;28;20650;-67
2023/03/21 01:55:05;;;;;;;1.70;1.60;;;11.10;99.90;;;11.22;nan;100826.88;4991003;28;21002;-70
2023/03/21 01:57:44;;;;;;;3.83;2.10;;;11.10;99.90;;;11.26;nan;100828.31;4991277;28;20653;-70
2023/03/21 02:00:30;;;;;;;3.83;1.97;;;11.10;99.90;;;11.29;nan;100822.84;4992385;28;21229;-69
2023/03/21 02:03:00;;;;;;;2.00;1.90;;;11.20;99.90;;;11.32;nan;100822.66;4986147;28;20634;-69
2023/03/21 02:06:10;;;;;;;1.70;1.60;;;11.20;99.90;;;11.31;nan;100821.81;4992037;28;21090;-67
2023/03/21 02:08:37;;;;;;;1.43;1.33;;;11.20;99.90;;;11.29;nan;100818.47;4990892;28;20689;-70
2023/03/21 02:11:08;;;;;;;1.73;1.63;;;11.20;99.90;;;11.23;nan;100812.84;4976168;28;20670;-67
2023/03/21 02:13:36;;;;;;;1.70;1.60;;;11.10;99.90;;;11.17;nan;100808.91;4992034;28;20633;-67
2023/03/21 02:16:41;;;;;;;1.87;1.77;;;11.10;99.90;;;11.11;nan;100808.50;4984378;28;20648;-70
2023/03/21 02:19:22;;;;;;;1.50;1.40;;;11.00;99.90;;;11.09;nan;100799.97;4982768;28;20964;-69
2023/03/21 02:22:37;;;;;;;1.50;1.40;;;11.00;99.90;;;11.04;nan;100796.81;4991941;28;20785;-70
2023/03/21 02:25:51;;;;;;;1.40;1.30;;;10.90;99.90;;;10.99;nan;100798.94;4992433;28;20674;-70
2023/03/21 02:28:29;;;;;;;1.73;1.63;;;10.80;99.90;;;10.97;nan;100791.19;4991947;28;20632;-69
2023/03/21 02:31:13;;;;;;;1.67;1.57;;;10.80;99.90;;;10.96;nan;100789.56;4991724;28;20658;-68
2023/03/21 02:34:02;;;;;;;1.57;1.47;;;10.80;99.90;;;10.94;nan;100791.44;5007327;28;20618;-69
2023/03/21 02:36:57;;;;;;;1.50;1.50;;;10.90;99.90;;;10.96;nan;100789.56;4987291;28;20644;-70
2023/03/21 02:39:27;;;;;;;2.17;1.40;;;10.80;99.90;;;10.94;nan;100791.44;4972801;28;20681;-70
2023/03/21 02:42:39;;;;;;;1.43;1.37;;;10.80;99.90;;;10.93;nan;100788.00;4984947;28;21248;-70
2023/03/21 02:45:19;;;;;;;1.90;1.80;;;10.80;99.90;;;10.98;nan;100792.03;4957189;28;20683;-71
2023/03/21 02:47:56;;;;;;;2.80;2.23;;;10.90;99.90;;;10.99;nan;100793.72;4971200;28;20685;-69
2023/03/21 02:50:34;;;;;;;2.27;2.10;;;10.90;99.90;;;11.02;nan;100793.50;4986827;28;20666;-69
2023/03/21 02:53:06;;;;;;;2.43;2.30;;;10.90;99.90;;;11.06;nan;100789.72;4991718;28;21021;-69
2023/03/21 02:55:34;;;;;;;3.67;1.63;;;10.90;99.90;;;11.03;nan;100795.97;4981182;28;20665;-70
2023/03/21 02:58:03;;;;;;;4.00;1.87;;;10.90;99.90;;;10.99;nan;100789.31;4971668;28;20677;-70
2023/03/21 03:00:42;;;;;;;2.10;2.00;;;10.90;99.90;;;11.02;nan;100793.50;4974331;28;20674;-69
2023/03/21 03:03:11;;;;;;;2.53;1.50;;;10.90;99.90;;;11.05;nan;100788.06;4987643;28;20674;-69
2023/03/21 03:05:51;;;;;;;1.60;1.50;;;10.90;99.90;;;11.01;nan;100776.97;4979333;28;21289;-69
2023/03/21 03:08:36;;;;;;;1.60;1.50;;;10.90;99.90;;;10.92;nan;100780.28;4990366;28;21160;-70
2023/03/21 03:11:35;;;;;;;2.00;0.97;;;10.80;99.90;;;10.89;nan;100778.72;4981515;28;20670;-70
2023/03/21 03:14:41;;;;;;;2.00;1.57;;;10.80;99.90;;;10.84;nan;100774.72;4971372;28;20689;-70
2023/03/21 03:17:54;;;;;;;1.30;1.30;;;10.70;99.90;;;10.81;nan;100765.38;4972202;28;21180;-69
2023/03/21 03:20:48;;;;;;;3.03;1.30;;;10.70;99.90;;;10.79;nan;100772.47;4970593;28;20659;-69
2023/03/21 03:23:52;;;;;;;3.83;1.60;;;10.70;99.90;;;10.73;nan;100766.84;4984512;28;21195;-70
2023/03/21 03:26:25;;;;;;;1.97;1.80;;;10.70;99.90;;;10.68;nan;100780.22;4972733;28;20645;-69
2023/03/21 03:29:00;;;;;;;1.50;1.40;;;10.60;99.90;;;10.68;nan;100777.59;4971380;28;20631;-69
2023/03/21 03:31:35;;;;;;;1.50;1.40;;;10.60;99.90;;;10.67;nan;100772.47;4990182;28;20661;-70
2023/03/21 03:34:08;;;;;;;1.57;1.27;;;10.60;99.90;;;10.66;nan;100776.03;4989921;28;20626;-69
2023/03/21 03:36:41;;;;;;;2.00;1.43;;;10.50;99.90;;;10.66;nan;100766.44;4989405;28;21105;-69
2023/03/21 03:39:12;;;;;;;1.30;1.20;;;10.50;99.90;;;10.63;nan;100777.09;4989530;28;21206;-70
2023/03/21 03:42:06;;;;;;;1.80;1.70;;;10.50;99.90;;;10.61;nan;100781.56;4990957;28;21070;-70
2023/03/21 03:44:53;;;;;;;1.20;1.20;;;10.50;99.90;;;10.59;nan;100775.63;4975714;28;20683;-69
2023/03/21 03:47:41;;;;;;;2.77;1.73;;;10.50;99.90;;;10.56;nan;100770.63;4972159;28;20619;-69
2023/03/21 03:50:44;;;;;;;1.60;1.20;;;10.50;99.90;;;10.52;nan;100769.16;4978047;28;20696;-69
2023/03/21 03:53:22;;;;;;;2.10;1.37;;;10.40;99.90;;;10.51;nan;100766.66;4981306;28;21212;-70
2023/03/21 03:55:52;;;;;;;1.63;1.53;;;10.40;99.90;;;10.47;nan;100767.81;4989738;28;21261;-70
2023/03/21 03:58:21;;;;;;;1.50;1.43;;;10.40;99.90;;;10.49;nan;100772.00;4990541;28;20696;-70
2023/03/21 04:00:55;;;;;;;1.53;1.40;;;10.30;99.90;;;10.48;nan;100769.47;4995963;28;20751;-69
2023/03/21 04:03:22;;;;;;;1.70;1.60;;;10.40;99.90;;;10.47;nan;100773.03;4990062;28;20815;-70
2023/03/21 04:05:49;;;;;;;1.43;1.30;;;10.30;99.90;;;10.47;nan;100771.28;4985800;28;21263;-70
2023/03/21 04:08:16;;;;;;;5.70;1.27;;;10.40;99.90;;;10.47;nan;100762.59;4989445;28;20700;-69
2023/03/21 04:10:43;;;;;;;1.63;1.63;;;10.40;99.90;;;10.48;nan;100765.09;4978909;28;21261;-69
2023/03/21 04:13:10;;;;;;;1.40;1.30;;;10.40;99.90;;;10.53;nan;100764.78;4990826;28;20641;-69
2023/03/21 04:15:37;;;;;;;1.43;1.33;;;10.40;99.90;;;10.56;nan;100773.22;4981241;28;20631;-70
2023/03/21 04:18:05;;;;;;;2.60;2.40;;;10.50;99.90;;;10.59;nan;100766.97;4971060;28;20635;-70
2023/03/21 04:20:32;;;;;;;1.70;1.60;;;10.50;99.90;;;10.61;nan;100762.47;4977181;28;21028;-70
2023/03/21 04:23:04;;;;;;;1.13;1.13;;;10.50;99.90;;;10.64;nan;100770.09;4988326;28;20607;-70
2023/03/21 04:25:36;;;;;;;1.80;1.70;;;10.50;99.90;;;10.65;nan;100761.31;4973131;28;20733;-70
2023/03/21 04:28:13;;;;;;;2.37;2.17;;;10.50;99.90;;;10.66;nan;100761.22;4983636;28;20648;-69
2023/03/21 04:30:40;;;;;;;2.50;2.30;;;10.50;99.90;;;10.69;nan;100763.59;4987904;28;21247;-69
2023/03/21 04:33:15;;;;;;;2.47;2.30;;;10.60;99.90;;;10.69;nan;100763.59;4990643;28;20630;-70
2023/03/21 04:35:44;;;;;;;3.00;2.80;;;10.60;99.90;;;10.71;nan;100761.72;4990003;28;20645;-70
2023/03/21 04:38:11;;;;;;;2.07;1.90;;;10.60;99.90;;;10.71;nan;100764.34;4990460;28;20627;-69
2023/03/21 04:40:38;;;;;;;2.10;2.00;;;10.60;99.90;;;10.71;nan;100761.72;4973985;28;20659;-70
2023/03/21 04:43:05;;;;;;;2.50;2.30;;;10.60;99.90;;;10.70;nan;100767.06;4991289;28;20627;-69
2023/03/21 04:45:32;;;;;;;2.67;2.47;;;10.60;99.90;;;10.66;nan;100766.44;4988816;28;20658;-69
2023/03/21 04:47:59;;;;;;;3.13;2.17;;;10.60;99.90;;;10.67;nan;100768.09;4989720;28;20613;-69
2023/03/21 04:50:26;;;;;;;1.93;1.83;;;10.60;99.90;;;10.66;nan;100758.63;4989466;28;20670;-69
2023/03/21 04:52:53;;;;;;;1.30;1.23;;;10.60;99.90;;;10.68;nan;100759.34;4973587;28;20641;-69
2023/03/21 04:55:20;;;;;;;1.50;1.50;;;10.60;99.90;;;10.68;nan;100769.78;4990313;28;21382;-69
2023/03/21 04:57:47;;;;;;;2.00;1.50;;;10.60;99.90;;;10.68;nan;100754.13;4989242;28;20627;-69
2023/03/21 05:00:15;;;;;;;6.90;1.60;;;10.60;99.90;;;10.67;nan;100756.81;4993441;28;20890;-69
2023/03/21 05:02:42;;;;;;;1.70;1.60;;;10.60;99.90;;;10.67;nan;100747.22;4993245;28;20633;-69
2023/03/21 05:05:10;;;;;;;1.20;1.20;;;10.60;99.90;;;10.60;nan;100745.16;4994193;28;21010;-69
2023/03/21 05:07:40;;;;;;;2.23;1.37;;;10.50;99.90;;;10.58;nan;100747.06;4988997;28;21197;-69
2023/03/21 05:10:10;;;;;;;4.70;1.60;;;10.50;99.90;;;10.55;nan;100748.09;4993830;28;21074;-69
2023/03/21 05:12:38;;;;;;;3.20;1.40;;;10.50;99.90;;;10.54;nan;100740.38;4987630;28;20658;-69
2023/03/21 05:15:07;;;;;;;2.13;1.63;;;10.50;99.90;;;10.57;nan;100742.75;4975722;28;20693;-69
2023/03/21 05:17:33;;;;;;;3.30;1.80;;;10.50;99.90;;;10.55;nan;100744.63;4980054;28;20638;-69
2023/03/21 05:20:00;;;;;;;1.43;1.33;;;10.50;99.90;;;10.47;nan;100741.75;4992787;28;20638;-67
2023/03/21 05:22:27;;;;;;;1.40;1.30;;;10.40;99.90;;;10.43;nan;100746.34;4973954;28;20807;-69
2023/03/21 05:24:55;;;;;;;1.03;1.03;;;10.40;99.90;;;10.40;nan;100738.72;4973880;28;20720;-69
2023/03/21 05:27:34;;;;;;;2.43;1.90;;;10.30;99.90;;;10.37;nan;100722.47;4991594;28;20707;-69
2023/03/21 05:30:12;;;;;;;5.07;1.93;;;10.30;99.90;;;10.34;nan;100728.72;4994045;28;21033;-69
2023/03/21 05:32:39;;;;;;;2.67;1.63;;;10.20;99.90;;;10.33;nan;100726.22;4993349;28;20669;-70
2023/03/21 05:35:07;;;;;;;1.73;1.57;;;10.30;99.90;;;10.36;nan;100721.63;4992948;28;21222;-69
2023/03/21 05:37:34;;;;;;;4.87;1.63;;;10.30;99.90;;;10.35;nan;100727.75;4989236;28;20627;-69
2023/03/21 05:40:03;;;;;;;2.80;1.70;;;10.30;99.90;;;10.37;nan;100719.84;4993031;28;21053;-69
2023/03/21 05:42:30;;;;;;;1.47;1.37;;;10.30;99.90;;;10.43;nan;100730.69;4974886;28;20638;-69
2023/03/21 05:44:57;;;;;;;1.77;1.67;;;10.30;99.90;;;10.49;nan;100732.03;4987842;28;21269;-69
2023/03/21 05:47:24;;;;;;;1.90;1.43;;;10.30;99.90;;;10.63;nan;100735.34;4991817;28;21035;-69
2023/03/21 05:49:51;;;;;;;4.47;2.10;;;10.50;99.90;;;10.74;nan;100729.34;4993122;28;20672;-69
2023/03/21 05:52:18;;;;;;;1.40;1.30;;;10.60;99.90;;;10.64;nan;100729.19;4990957;28;20645;-69
2023/03/21 05:54:45;;;;;;;2.00;1.47;;;10.60;99.90;;;10.64;nan;100734.41;4991634;28;20934;-68
2023/03/21 05:57:12;;;;;;;1.80;1.70;;;10.50;99.90;;;10.67;nan;100738.56;4993121;28;20634;-69
2023/03/21 05:59:39;;;;;;;2.03;1.93;;;10.50;99.90;;;10.67;nan;100739.38;4993327;28;20632;-69
2023/03/21 06:02:06;;;;;;;1.43;1.33;;;10.60;99.90;;;10.67;nan;100742.00;4986971;28;20665;-68
2023/03/21 06:04:33;;;;;;;1.23;1.07;;;10.60;99.90;;;10.69;nan;100745.34;4988917;28;20646;-68
2023/03/21 06:07:00;;;;;;;2.30;1.90;;;10.60;99.90;;;10.85;nan;100742.47;4986664;28;21218;-68
2023/03/21 06:09:27;;;;;;;1.70;1.17;;;10.70;99.90;;;11.19;nan;100748.72;4992754;28;20622;-69
2023/03/21 06:11:56;;;;;;;2.00;1.23;;;11.00;99.90;;;11.35;nan;100739.66;4983236;28;20674;-68
2023/03/21 06:14:24;;;;;;;1.70;1.63;;;11.20;99.90;;;11.33;nan;100740.75;4985041;28;20669;-70
2023/03/21 06:16:52;;;;;;;1.60;1.50;;;11.20;99.90;;;11.38;nan;100739.44;4984124;28;20638;-67
2023/03/21 06:19:20;;;;;;;1.70;1.60;;;11.20;99.90;;;11.40;nan;100739.31;4992236;28;20637;-69
2023/03/21 06:21:48;;;;;;;3.13;1.43;;;11.30;99.90;;;11.40;nan;100729.72;4988063;28;20670;-69
2023/03/21 06:24:16;;;;;;;2.00;1.20;;;11.30;99.90;;;11.41;nan;100743.63;4993099;28;20680;-68
2023/03/21 06:26:44;;;;;;;1.67;1.57;;;11.30;99.90;;;11.46;nan;100741.47;4992338;28;20720;-70
2023/03/21 06:29:11;;;;;;;1.53;1.43;;;11.30;99.90;;;11.49;nan;100747.31;4992771;28;21043;-70
2023/03/21 06:31:38;;;;;;;3.37;1.13;;;11.40;99.90;;;11.57;nan;100749.38;4990769;28;21087;-69
2023/03/21 06:34:06;;;;;;;0.70;0.70;;;11.50;99.90;;;11.61;nan;100750.78;4992596;28;21206;-69
2023/03/21 06:36:33;;;;;;;1.50;1.47;;;11.50;99.90;;;11.73;nan;100755.16;4991290;28;20646;-69
2023/03/21 06:39:00;;;;;;;5.23;1.90;;;11.60;99.90;;;11.87;nan;100762.78;4990696;28;21218;-69
2023/03/21 06:41:27;;;;;;;1.80;1.70;;;11.80;99.90;;;12.03;nan;100755.44;4989393;28;20692;-69
2023/03/21 06:43:54;;;;;;;1.30;1.30;;;11.90;99.90;;;12.35;nan;100756.44;4987176;28;20638;-70
2023/03/21 06:46:21;;;;;;;2.17;1.17;;;12.20;99.90;;;12.92;nan;100755.44;4982766;28;20682;-71
2023/03/21 06:48:48;;;;;;;3.80;1.83;;;12.70;99.90;;;13.47;nan;100752.69;4992330;28;20594;-70
2023/03/21 06:51:15;;;;;;;3.23;2.30;;;13.20;99.90;;;13.73;nan;100759.25;4986989;28;21176;-70
2023/03/21 06:53:43;;;;;;;3.00;1.80;;;13.60;99.90;;;13.62;nan;100755.84;4993295;28;20688;-70
2023/03/21 06:56:12;;;;;;;2.27;2.17;;;13.50;99.90;;;13.45;nan;100746.75;4991482;28;20631;-70
2023/03/21 06:58:39;;;;;;;2.30;2.10;;;13.40;99.90;;;13.34;nan;100754.66;4992568;28;20630;-70
2023/03/21 07:01:07;;;;;;;2.17;1.93;;;13.30;99.90;;;13.63;nan;100755.69;4987959;28;21325;-70
2023/03/21 07:03:34;;;;;;;1.30;1.17;;;13.50;99.90;;;14.08;nan;100752.81;4991259;28;20625;-70
2023/03/21 07:06:10;;;;;;;5.63;1.27;;;13.80;99.90;;;14.82;nan;100755.13;4989994;28;21095;-69
2023/03/21 07:08:39;;;;;;;2.50;2.03;;;14.50;99.90;;;15.42;nan;100751.44;4988975;28;21195;-69
2023/03/21 07:11:08;;;;;;;3.30;1.60;;;15.20;99.90;;;15.57;nan;100759.81;5023705;23;20781;-64
2023/03/21 07:13:35;;;;;;;6.20;2.20;;;15.40;99.90;;;15.60;nan;100759.53;4990631;28;21241;-62
2023/03/21 07:16:03;;;;;;;2.10;1.50;;;15.50;99.90;;;15.57;nan;100765.06;4992017;28;20611;-63
2023/03/21 07:18:30;;;;;;;2.33;1.70;;;15.40;99.90;;;15.17;nan;100770.41;4990142;28;20703;-64
2023/03/21 07:20:57;;;;;;;2.40;1.70;;;15.10;99.90;;;15.04;nan;100769.81;4991707;28;20739;-64
2023/03/21 07:23:26;;;;;;;2.33;2.13;;;15.00;99.90;;;14.91;nan;100764.81;4981233;28;20661;-64
2023/03/21 07:25:54;;;;;;;1.60;1.50;;;14.80;99.90;;;14.99;nan;100764.97;4991494;28;20674;-64
2023/03/21 07:28:22;;;;;;;3.13;2.07;;;14.90;99.90;;;15.02;nan;100767.31;4979109;28;20746;-63
2023/03/21 07:30:59;;;;;;;2.73;1.97;;;14.90;99.90;;;14.90;nan;100763.16;4972101;28;20650;-63
2023/03/21 07:33:27;;;;;;;1.77;1.67;;;14.80;99.90;;;14.84;nan;100752.34;4971073;28;20643;-66
2023/03/21 07:35:56;;;;;;;1.73;1.63;;;14.70;99.90;;;14.89;nan;100758.03;4976999;28;20641;-65
2023/03/21 07:38:24;;;;;;;3.53;2.00;;;14.80;99.90;;;14.86;nan;100756.53;4978335;28;20631;-63
2023/03/21 07:40:52;;;;;;;2.70;2.20;;;14.80;99.90;;;14.81;nan;100758.72;4971371;28;20693;-62
2023/03/21 07:43:19;;;;;;;2.00;1.87;;;14.70;99.90;;;14.83;nan;100756.78;4964720;28;21274;-63
2023/03/21 07:45:46;;;;;;;4.50;2.07;;;14.70;99.90;;;14.88;nan;100751.97;4964121;28;21243;-63
2023/03/21 07:48:16;;;;;;;2.33;1.43;;;14.80;99.90;;;14.92;nan;100749.88;4970560;28;20634;-65
2023/03/21 07:50:43;;;;;;;2.13;1.70;;;14.80;99.90;;;14.97;nan;100748.50;4971603;28;20663;-63
2023/03/21 07:53:10;;;;;;;4.00;2.03;;;14.90;99.90;;;15.12;nan;100755.03;4971171;28;20623;-64
2023/03/21 07:55:37;;;;;;;1.67;1.57;;;15.00;99.90;;;15.52;nan;100753.16;4971614;28;20700;-63
2023/03/21 07:58:04;;;;;;;1.07;0.97;;;15.30;99.90;;;16.20;nan;100760.00;4969611;28;20639;-64
2023/03/21 08:00:31;;;;;;;1.80;1.77;;;16.00;99.90;;;17.08;nan;100756.00;4985213;28;21262;-64
2023/03/21 08:02:58;;;;;;;2.07;1.90;;;16.90;99.50;;;18.25;nan;100756.50;4970672;28;21064;-63
2023/03/21 08:05:33;;;;;;;2.27;2.07;;;18.00;97.50;;;18.99;nan;100756.69;4968982;28;21228;-63
2023/03/21 08:08:01;;;;;;;2.10;2.00;;;19.00;94.00;;;19.21;nan;100761.34;4961054;28;21180;-64
2023/03/21 08:10:29;;;;;;;1.87;1.77;;;19.30;92.30;;;19.05;nan;100754.22;4985491;28;20647;-64
2023/03/21 08:12:56;;;;;;;2.13;2.03;;;19.30;91.30;;;18.67;nan;100753.94;4974525;28;20627;-64
2023/03/21 08:15:23;;;;;;;2.37;2.17;;;18.80;91.50;;;18.99;nan;100757.53;4971399;28;21043;-64
2023/03/21 08:17:50;;;;;;;1.77;1.67;;;19.00;91.70;;;19.27;nan;100755.44;4965699;28;20771;-60
2023/03/21 08:20:20;;;;;;;2.57;1.70;;;19.30;90.60;;;19.69;nan;100750.84;4984204;28;20674;-66
2023/03/21 08:22:48;;;;;;;1.90;1.57;;;19.70;90.10;;;20.52;nan;100754.03;4970766;28;20639;-65
2023/03/21 08:25:18;;;;;;;2.17;2.07;;;20.60;86.90;;;20.84;nan;100749.44;4969987;28;20640;-63
2023/03/21 08:27:45;;;;;;;1.80;1.70;;;21.00;83.70;;;20.50;nan;100753.38;4987229;28;20630;-63
2023/03/21 08:30:16;;;;;;;1.80;1.70;;;20.70;81.00;;;20.01;nan;100755.31;4970635;28;20631;-63
2023/03/21 08:32:43;;;;;;;2.50;1.60;;;20.20;81.30;;;19.69;nan;100753.50;4971322;28;20655;-63
2023/03/21 08:35:14;;;;;;;1.50;1.40;;;19.80;82.70;;;19.36;nan;100754.47;4972498;28;21059;-64
2023/03/21 08:37:42;;;;;;;2.17;1.97;;;19.50;83.40;;;19.18;nan;100753.75;4974579;28;20701;-67
2023/03/21 08:40:14;;;;;;;2.13;1.87;;;19.30;83.00;;;19.09;nan;100755.56;4978664;28;20629;-66
2023/03/21 08:42:43;;;;;;;1.93;1.83;;;19.20;83.40;;;18.62;nan;100756.22;4973865;28;21184;-64
2023/03/21 08:45:11;;;;;;;2.47;2.10;;;18.70;83.70;;;18.32;nan;100755.72;4975186;28;20677;-66
2023/03/21 08:47:38;;;;;;;2.00;1.90;;;18.40;84.90;;;18.05;nan;100747.13;4967468;28;20658;-64
2023/03/21 08:50:08;;;;;;;4.00;2.30;;;18.10;86.10;;;18.02;nan;100753.53;4973629;28;20632;-64
2023/03/21 08:52:36;;;;;;;1.80;1.70;;;18.00;87.40;;;17.95;nan;100754.34;4974855;28;20637;-66
2023/03/21 08:55:03;;;;;;;5.60;2.00;;;17.90;87.80;;;17.79;nan;100747.94;4975010;28;20607;-65
2023/03/21 08:57:30;;;;;;;3.23;1.30;;;17.80;89.00;;;17.59;nan;100758.84;4974283;28;20639;-65
2023/03/21 08:59:57;;;;;;;6.10;2.10;;;17.60;90.50;;;17.18;nan;100751.47;4975096;28;20634;-66
2023/03/21 09:02:24;;;;;;;2.37;2.20;;;17.20;90.60;;;17.13;nan;100753.72;4972173;28;21058;-65
2023/03/21 09:04:53;;;;;;;2.70;2.07;;;17.00;92.10;;;17.04;nan;100755.44;4974557;28;20637;-65
2023/03/21 09:07:20;;;;;;;1.87;1.80;;;17.00;91.80;;;17.00;nan;100751.47;4973736;28;20729;-64
2023/03/21 09:09:51;;;;;;;2.27;1.73;;;16.90;92.30;;;17.00;nan;100749.66;4974089;28;20631;-64
2023/03/21 09:12:38;;;;;;;1.50;1.40;;;16.90;92.40;;;16.88;nan;100755.28;4965739;28;21091;-64
2023/03/21 09:15:07;;;;;;;1.90;1.80;;;16.80;92.90;;;16.75;nan;100745.09;4976095;28;20622;-65
2023/03/21 09:17:35;;;;;;;4.30;2.40;;;16.70;93.30;;;16.73;nan;100751.47;4973454;28;20639;-66
2023/03/21 09:20:10;;;;;;;2.03;1.67;;;16.60;93.20;;;16.74;nan;100747.84;4967972;28;20631;-65
2023/03/21 09:22:38;;;;;;;4.47;1.70;;;16.70;93.20;;;16.54;nan;100746.31;4971036;28;21208;-65
2023/03/21 09:25:10;;;;;;;3.00;2.43;;;16.50;93.30;;;16.50;nan;100742.31;4973648;28;20689;-64
2023/03/21 09:27:37;;;;;;;3.33;2.57;;;16.40;93.20;;;16.75;nan;100750.38;4972463;28;20689;-64
2023/03/21 09:30:06;;;;;;;2.83;1.80;;;16.60;92.30;;;17.02;nan;100750.34;4973073;28;20631;-65
2023/03/21 09:32:34;;;;;;;2.97;2.07;;;16.80;92.20;;;17.33;nan;100755.25;4971840;28;20639;-63
2023/03/21 09:35:01;;;;;;;2.37;2.17;;;17.10;91.70;;;17.51;nan;100751.66;4976352;28;20782;-66
2023/03/21 09:37:28;;;;;;;1.93;1.47;;;17.30;91.20;;;17.48;nan;100748.47;4979805;28;20700;-64
2023/03/21 09:39:57;;;;;;;1.90;1.80;;;17.40;90.90;;;17.57;nan;100744.94;4973842;28;20639;-66
2023/03/21 09:42:42;;;;;;;1.60;1.50;;;17.40;90.80;;;17.56;nan;100746.78;4973208;28;21048;-64
2023/03/21 09:45:23;;;;;;;1.77;1.57;;;17.40;90.80;;;17.48;nan;100745.84;4988191;28;21013;-64
2023/03/21 09:47:53;;;;;;;1.73;1.30;;;17.30;90.80;;;17.43;nan;100740.19;4970748;28;20722;-63
2023/03/21 09:50:30;;;;;;;3.17;1.47;;;17.30;91.00;;;17.22;nan;100742.28;4973932;28;20646;-66
2023/03/21 09:53:11;;;;;;;6.97;2.40;;;17.10;90.90;;;17.22;nan;100743.13;4973594;28;20626;-65
2023/03/21 09:55:40;;;;;;;3.27;2.00;;;17.10;91.20;;;17.34;nan;100741.09;4987918;28;20631;-64
2023/03/21 09:58:29;;;;;;;8.93;5.13;;;17.10;91.10;;;17.35;nan;100748.03;4986439;28;20643;-65
2023/03/21 10:01:20;;;;;;;6.90;4.23;;;17.20;91.00;;;17.22;nan;100748.41;4963650;28;20648;-66
2023/03/21 10:03:53;;;;;;;3.60;2.73;;;17.10;90.70;;;17.08;nan;100753.38;4966693;28;20632;-64
2023/03/21 10:06:27;;;;;;;3.33;1.67;;;16.90;91.00;;;16.89;nan;100752.50;4969091;28;20670;-66
2023/03/21 10:09:07;;;;;;;3.60;1.80;;;16.80;91.40;;;16.87;nan;100749.19;4984284;28;20641;-65
2023/03/21 10:11:51;;;;;;;1.37;1.27;;;16.70;91.80;;;16.75;nan;100739.81;4971899;28;20752;-64
2023/03/21 10:14:23;;;;;;;2.80;1.47;;;16.60;91.80;;;16.66;nan;100742.50;4960559;28;20639;-67
2023/03/21 10:16:59;;;;;;;1.70;1.60;;;16.50;91.70;;;16.55;nan;100735.63;4963200;28;20631;-64
2023/03/21 10:19:27;;;;;;;1.53;1.43;;;16.40;91.90;;;16.44;nan;100741.03;4985627;28;20696;-64
2023/03/21 10:21:55;;;;;;;1.80;1.70;;;16.30;92.90;;;16.43;nan;100733.28;4973700;28;20705;-62
2023/03/21 10:24:32;;;;;;;1.70;1.50;;;16.30;93.20;;;16.44;nan;100737.59;4971908;28;20640;-64
2023/03/21 10:27:01;;;;;;;2.20;1.57;;;16.30;93.50;;;16.51;nan;100725.50;4971967;28;21083;-63
2023/03/21 10:29:42;;;;;;;1.60;1.50;;;16.30;93.40;;;16.59;nan;100729.06;4985993;28;20614;-62
2023/03/21 10:32:14;;;;;;;1.90;1.80;;;16.40;93.90;;;16.66;nan;100724.88;4972162;28;21213;-64
2023/03/21 10:34:54;;;;;;;1.20;1.20;;;16.40;93.80;;;16.65;nan;100728.50;4970301;28;20635;-64
2023/03/21 10:37:23;;;;;;;1.60;1.50;;;16.50;93.70;;;16.60;nan;100725.47;4962377;28;21221;-64
2023/03/21 10:39:53;;;;;;;1.53;1.43;;;16.40;93.80;;;16.56;nan;100723.28;4971271;28;20639;-64
2023/03/21 10:42:30;;;;;;;1.80;1.70;;;16.40;93.90;;;16.41;nan;100719.44;4972505;28;20677;-64
2023/03/21 10:44:57;;;;;;;1.60;1.50;;;16.30;93.80;;;16.29;nan;100726.72;4980284;28;20646;-64
2023/03/21 10:47:28;;;;;;;1.57;1.37;;;16.10;94.20;;;16.10;nan;100718.84;4991504;28;20942;-64